Oak Grove (212) Station Data

Red Flag Warning: No
Fire Weather Zone: 258
SDGE Region: Ramona
Lat/Lon: 33.392/-116.788

Observations

Time Wind Speed/Gust Temp(F) RH Fuel Moist Fuel Temp(F) Dewpt(F) Tmax(F) Tmin(F) Accum Precip 10-min Precip SL Press(mb)
4/26 2:40am 125 3 G 4 44° 86% - - 40° 47.9° 42.5° - - -
4/26 2:30am 94 2 G 4 43° 86% - - 39° 47.9° 42.5° - - -
4/26 2:20am 135 4 G 6 45° 83% - - 40° 47.9° 43.9° - - -
4/26 2:10am 154 4 G 5 46° 83% - - 41° 47.9° 44° - - -
4/26 2:00am 136 4 G 5 45° 85% - - 41° 47.9° 44° - - -
4/26 1:50am 132 4 G 5 45° 85% - - 41° 47.9° 44° - - -
4/26 1:40am 146 2 G 3 45° 88% - - 42° 47.9° 44° - - -
4/26 1:30am 110 2 G 3 45° 87% - - 41° 47.9° 44° - - -
4/26 1:20am 88 3 G 5 46° 84% - - 41° 47.9° 44.5° - - -
4/26 1:10am 105 3 G 5 46° 85% - - 42° 47.9° 44.5° - - -
4/26 1:00am 181 3 G 5 47° 85% - - 43° 47.9° 44.5° - - -
4/26 12:50am 88 1 G 2 47° 86% - - 43° 47.9° 44.5° - - -
4/26 12:40am 98 2 G 4 46° 87% - - 42° 47.7° 44.5° - - -
4/26 12:30am 135 4 G 6 47° 86% - - 43° 47.7° 45.5° - - -
4/26 12:20am 162 3 G 4 47° 88% - - 43° 47.2° 45.5° - - -
4/26 12:10am 96 2 G 4 46° 87% - - 42° 46.9° 45.5° - - -
4/26 12:00am 74 2 G 3 47° 87% - - 43° 65° 45.7° - - -
4/25 11:50pm 110 2 G 3 47° 86% - - 43° 65° 46° - - -
4/25 11:40pm 146 3 G 5 48° 86% - - 44° 65° 46° - - -
4/25 11:30pm 145 3 G 4 47° 88% - - 44° 65° 46° - - -
4/25 11:20pm 126 3 G 4 47° 87% - - 43° 65° 46° - - -
4/25 11:10pm 92 3 G 5 48° 85% - - 44° 65° 46.3° - - -
4/25 11:00pm 75 2 G 3 49° 85% - - 45° 65° 47.4° - - -
4/25 10:50pm 108 1 G 2 49° 86% - - 45° 65° 47.4° - - -
4/25 10:40pm 110 1 G 1 49° 85% - - 45° 65° 47.4° - - -
4/25 10:30pm 104 2 G 4 50° 82% - - 45° 65° 47.4° - - -
4/25 10:20pm 150 4 G 5 51° 81% - - 46° 65° 47.4° - - -
4/25 10:10pm 162 4 G 5 52° 81% - - 46° 65° 47.4° - - -
4/25 10:00pm 160 3 G 4 52° 80% - - 46° 65° 47.4° - - -
4/25 9:50pm 157 3 G 4 53° 79% - - 46° 65° 47.4° - - -
4/25 9:40pm 167 3 G 4 53° 80% - - 47° 65° 47.4° - - -
4/25 9:30pm 175 2 G 3 53° 80% - - 47° 65° 47.4° - - -
4/25 9:20pm 267 2 G 4 54° 77% - - 47° 65° 47.4° - - -
4/25 9:10pm 307 3 G 5 54° 77% - - 47° 65° 47.4° - - -
4/25 9:00pm 291 4 G 8 54° 78% - - 47° 65° 47.4° - - -
4/25 8:50pm 323 5 G 7 55° 76% - - 48° 65° 47.4° - - -
4/25 8:40pm 326 5 G 7 55° 76% - - 48° 65° 47.4° - - -
4/25 8:30pm 322 5 G 8 55° 76% - - 47° 65° 47.4° - - -
4/25 8:20pm 314 6 G 7 55° 75% - - 47° 65° 47.4° - - -
4/25 8:10pm 313 6 G 9 55° 75% - - 47° 65° 47.4° - - -
4/25 8:00pm 305 6 G 7 55° 75% - - 47° 65° 47.4° - - -
4/25 7:50pm 303 5 G 7 56° 74% - - 47° 65° 47.4° - - -
4/25 7:40pm 306 6 G 9 57° 71% - - 47° 65° 47.4° - - -
4/25 7:30pm 318 6 G 9 57° 69% - - 47° 65° 47.4° - - -
4/25 7:20pm 329 7 G 11 58° 67% - - 47° 65° 47.4° - - -
4/25 7:10pm 326 7 G 9 58° 66% - - 47° 65° 47.4° - - -
4/25 7:00pm 322 7 G 10 59° 65% - - 47° 65° 47.4° - - -
4/25 6:50pm 321 9 G 14 59° 64% - - 47° 65° 47.4° - - -
4/25 6:40pm 319 11 G 15 60° 63% - - 47° 65° 47.4° - - -
4/25 6:30pm 317 10 G 14 60° 62% - - 47° 65° 47.4° - - -
4/25 6:20pm 317 10 G 15 60° 61% - - 47° 65° 47.4° - - -
4/25 6:10pm 317 9 G 13 61° 60% - - 47° 65° 47.4° - - -
4/25 6:00pm 324 7 G 11 61° 60% - - 47° 65° 47.4° - - -
4/25 5:50pm 312 9 G 12 61° 60% - - 47° 65° 47.4° - - -
4/25 5:40pm 315 9 G 13 61° 59% - - 47° 65° 47.4° - - -
4/25 5:30pm 305 11 G 16 61° 59% - - 46° 65° 47.4° - - -
4/25 5:20pm 308 11 G 17 61° 58% - - 47° 65° 47.4° - - -
4/25 5:10pm 302 11 G 17 61° 58% - - 46° 65° 47.4° - - -
4/25 5:00pm 307 9 G 13 61° 59% - - 47° 65° 47.4° - - -
4/25 4:50pm 290 9 G 14 61° 59% - - 46° 65° 47.4° - - -
4/25 4:40pm 304 10 G 15 62° 57% - - 46° 65° 47.4° - - -
4/25 4:30pm 300 9 G 15 61° 57% - - 46° 65° 47.4° - - -
4/25 4:20pm 295 12 G 18 62° 55% - - 46° 65° 47.4° - - -
4/25 4:10pm 293 8 G 18 63° 53% - - 46° 65° 47.4° - - -
4/25 4:00pm 310 10 G 17 63° 52% - - 45° 65° 47.4° - - -
4/25 3:50pm 312 9 G 16 64° 52% - - 46° 65° 47.4° - - -
4/25 3:40pm 322 10 G 19 64° 51% - - 45° 64.8° 47.4° - - -
4/25 3:30pm 307 9 G 15 63° 52% - - 45° 64.5° 47.4° - - -
4/25 3:20pm 310 11 G 17 62° 51% - - 44° 64.5° 47.4° - - -
4/25 3:10pm 313 11 G 17 63° 50% - - 44° 64.5° 47.4° - - -
4/25 3:00pm 319 9 G 18 64° 47% - - 43° 64.5° 47.4° - - -
4/25 2:50pm 300 12 G 18 63° 48% - - 43° 64.4° 47.4° - - -
4/25 2:40pm 294 8 G 15 63° 48% - - 43° 64.1° 47.4° - - -
4/25 2:30pm 311 9 G 16 63° 48% - - 43° 64.1° 47.4° - - -
4/25 2:20pm 301 9 G 15 63° 50% - - 44° 63.8° 47.4° - - -
4/25 2:10pm 312 10 G 16 62° 50% - - 44° 63.8° 47.4° - - -
4/25 2:00pm 309 11 G 19 63° 49% - - 44° 63.8° 47.4° - - -
4/25 1:50pm 308 11 G 18 62° 50% - - 44° 63.8° 47.4° - - -
4/25 1:40pm 320 14 G 19 62° 51% - - 43° 63.8° 47.4° - - -
4/25 1:30pm 313 13 G 20 62° 51% - - 43° 63.8° 47.4° - - -
4/25 1:20pm 312 10 G 21 62° 50% - - 43° 63.8° 47.4° - - -
4/25 1:10pm 324 11 G 18 62° 48% - - 42° 63.8° 47.4° - - -
4/25 1:00pm 312 11 G 17 62° 47% - - 42° 63.8° 47.4° - - -
4/25 12:50pm 337 10 G 19 62° 45% - - 41° 63.8° 47.4° - - -
4/25 12:40pm 333 9 G 16 62° 47% - - 42° 63.4° 47.4° - - -
4/25 12:30pm 324 10 G 17 62° 48% - - 42° 62.6° 47.4° - - -
4/25 12:20pm 317 10 G 17 61° 51% - - 43° 62.4° 47.4° - - -
4/25 12:10pm 324 9 G 18 61° 52% - - 43° 61.9° 47.4° - - -
4/25 12:00pm 310 9 G 17 61° 54% - - 44° 61.9° 47.4° - - -
4/25 11:50am 309 9 G 16 60° 56% - - 44° 60.6° 47.4° - - -
4/25 11:40am 312 8 G 14 60° 56% - - 44° 60.6° 47.4° - - -
4/25 11:30am 320 8 G 13 59° 57% - - 44° 60° 47.4° - - -
4/25 11:20am 319 8 G 13 59° 59% - - 45° 59.7° 47.4° - - -
4/25 11:10am 322 7 G 11 58° 60% - - 44° 59.4° 47.4° - - -
4/25 11:00am 306 6 G 11 58° 61% - - 45° 59.4° 47.4° - - -
4/25 10:50am 312 6 G 15 58° 61% - - 45° 59.4° 47.4° - - -
4/25 10:40am 302 7 G 13 58° 63% - - 45° 58.3° 47.4° - - -
4/25 10:30am 313 7 G 12 57° 64% - - 45° 58.3° 47.4° - - -
4/25 10:20am 321 8 G 15 57° 66% - - 45° 57.7° 47.4° - - -
4/25 10:10am 308 7 G 11 56° 68% - - 46° 57.6° 47.4° - - -
4/25 10:00am 307 9 G 16 57° 67% - - 46° 57.6° 47.4° - - -
4/25 9:50am 317 8 G 12 56° 68% - - 46° 57.6° 47.4° - - -
4/25 9:40am 320 7 G 12 56° 69% - - 46° 56.3° 47.4° - - -
4/25 9:30am 303 5 G 11 55° 71% - - 46° 56° 47.4° - - -
4/25 9:20am 296 7 G 13 55° 72% - - 46° 55.3° 47.4° - - -
4/25 9:10am 315 7 G 12 54° 73% - - 45° 54.8° 47.4° - - -
4/25 9:00am 307 7 G 13 54° 73% - - 46° 54.8° 47.4° - - -
4/25 8:50am 310 8 G 11 53° 75% - - 46° 54° 47.4° - - -
4/25 8:40am 316 8 G 13 53° 77% - - 46° 53.5° 47.4° - - -
4/25 8:30am 308 8 G 12 52° 79% - - 46° 53.3° 47.4° - - -
4/25 8:20am 307 8 G 13 52° 82% - - 47° 52.8° 47.4° - - -
4/25 8:10am 304 7 G 11 51° 86% - - 47° 52.2° 47.4° - - -
4/25 8:00am 311 7 G 10 51° 89% - - 47° 51.6° 47.4° - - -
4/25 7:50am 282 6 G 9 50° 92% - - 48° 51.6° 47.4° - - -
4/25 7:40am 265 6 G 8 50° 94% - - 48° 51.6° 47.4° - - -
4/25 7:30am 258 5 G 9 50° 94% - - 48° 51.6° 47.4° - - -
4/25 7:20am 292 4 G 6 49° 94% - - 47° 51.6° 47.4° - - -
4/25 7:10am 247 2 G 4 49° 94% - - 47° 51.6° 47.4° - - -
4/25 7:00am 181 2 G 5 49° 91% - - 46° 51.6° 47.4° - - -
4/25 6:50am 306 4 G 8 49° 90% - - 46° 51.6° 47.4° - - -
4/25 6:40am 336 6 G 10 49° 89% - - 46° 51.6° 47.4° - - -
4/25 6:30am 326 6 G 12 48° 93% - - 46° 51.6° 47.4° - - -
4/25 6:20am 276 3 G 7 48° 94% - - 47° 51.6° 47.5° - - -
4/25 6:10am 314 7 G 13 49° 93% - - 47° 51.6° 47.5° - - -
4/25 6:00am 317 6 G 10 48° 95% - - 47° 51.6° 47.5° - - -
4/25 5:50am 333 5 G 7 48° 96% - - 47° 51.6° 47.5° - - -
4/25 5:40am 283 2 G 5 48° 95% - - 47° 51.6° 47.5° - - -
4/25 5:30am 295 4 G 7 49° 93% - - 47° 51.6° 47.7° - - -
4/25 5:20am 329 4 G 7 49° 94% - - 47° 51.6° 47.7° - - -
4/25 5:10am 308 3 G 6 48° 96% - - 47° 51.6° 47.7° - - -
4/25 5:00am 300 3 G 5 48° 96% - - 47° 51.6° 47.9° - - -
4/25 4:50am 276 3 G 4 49° 96% - - 48° 51.6° 48.3° - - -
4/25 4:40am 296 4 G 6 49° 96% - - 48° 51.6° 48.6° - - -
4/25 4:30am 302 4 G 7 49° 96% - - 48° 51.6° 48.7° - - -
4/25 4:20am 302 5 G 7 49° 95% - - 48° 51.6° 48.9° - - -
4/25 4:10am 293 4 G 6 50° 95% - - 48° 51.6° 49° - - -
4/25 4:00am 298 5 G 8 50° 94% - - 48° 51.6° 49° - - -
4/25 3:50am 319 5 G 10 50° 93% - - 48° 51.6° 49° - - -
4/25 3:40am 334 7 G 10 49° 95% - - 48° 51.6° 49° - - -
4/25 3:30am 317 6 G 10 49° 95% - - 48° 51.6° 49° - - -
4/25 3:20am 313 7 G 11 50° 95% - - 48° 51.6° 49.2° - - -
4/25 3:10am 317 7 G 12 50° 93% - - 48° 51.6° 49.4° - - -
4/25 3:00am 321 8 G 12 50° 94% - - 48° 51.6° 49.6° - - -
4/25 2:50am 318 8 G 12 50° 94% - - 48° 51.6° 49.6° - - -
4/25 2:40am 315 9 G 12 50° 94% - - 48° 51.6° 49.6° - - -
4/25 2:30am 318 8 G 12 50° 95% - - 49° 51.6° 49.7° - - -
4/25 2:20am 309 8 G 12 50° 95% - - 49° 51.6° 49.7° - - -
4/25 2:10am 301 8 G 11 50° 95% - - 49° 51.6° 49.7° - - -
4/25 2:00am 309 7 G 10 50° 96% - - 49° 51.6° 49.7° - - -
4/25 1:50am 302 8 G 12 50° 97% - - 49° 51.6° 49.7° - - -
4/25 1:40am 298 8 G 12 50° 97% - - 49° 51.6° 49.7° - - -
4/25 1:30am 298 8 G 11 50° 97% - - 49° 51.6° 49.8° - - -
4/25 1:20am 297 8 G 12 50° 96% - - 49° 51.6° 49.9° - - -
4/25 1:10am 302 7 G 10 50° 96% - - 49° 51.6° 49.9° - - -
4/25 1:00am 295 7 G 10 50° 96% - - 49° 51.6° 49.9° - - -
4/25 12:50am 306 7 G 11 50° 95% - - 49° 51.6° 49.9° - - -
4/25 12:40am 295 7 G 10 50° 94% - - 49° 51.6° 49.9° - - -
4/25 12:30am 298 5 G 7 51° 94% - - 49° 51.6° 50.1° - - -
4/25 12:20am 290 5 G 7 51° 93% - - 49° 51.6° 50.5° - - -
4/25 12:10am 279 5 G 8 51° 93% - - 49° 51.6° 50.7° - - -
4/25 12:00am 255 3 G 6 51° 93% - - 49° 67.1° 39.8° - - -
4/24 11:50pm 269 2 G 4 51° 93% - - 49° 67.1° 39.8° - - -
4/24 11:40pm 325 1 G 3 51° 93% - - 49° 67.1° 39.8° - - -
4/24 11:30pm 300 5 G 11 51° 93% - - 49° 67.1° 39.8° - - -
4/24 11:20pm 304 10 G 14 52° 92% - - 49° 67.1° 39.8° - - -
4/24 11:10pm 303 10 G 16 52° 91% - - 49° 67.1° 39.8° - - -
4/24 11:00pm 295 9 G 13 52° 91% - - 49° 67.1° 39.8° - - -
4/24 10:50pm 292 8 G 12 52° 91% - - 49° 67.1° 39.8° - - -
4/24 10:40pm 306 10 G 13 52° 90% - - 49° 67.1° 39.8° - - -
4/24 10:30pm 288 6 G 9 52° 90% - - 49° 67.1° 39.8° - - -
4/24 10:20pm 279 6 G 8 52° 90% - - 49° 67.1° 39.8° - - -
4/24 10:10pm 284 6 G 8 52° 90% - - 49° 67.1° 39.8° - - -
4/24 10:00pm 288 5 G 8 52° 89% - - 49° 67.1° 39.8° - - -
4/24 9:50pm 290 5 G 8 53° 88% - - 49° 67.1° 39.8° - - -
4/24 9:40pm 296 6 G 9 53° 88% - - 49° 67.1° 39.8° - - -
4/24 9:30pm 277 5 G 7 53° 88% - - 50° 67.1° 39.8° - - -
4/24 9:20pm 267 5 G 8 53° 88% - - 50° 67.1° 39.8° - - -
4/24 9:10pm 278 6 G 8 53° 88% - - 50° 67.1° 39.8° - - -
4/24 9:00pm 290 6 G 9 53° 87% - - 50° 67.1° 39.8° - - -
4/24 8:50pm 294 5 G 8 54° 87% - - 50° 67.1° 39.8° - - -
4/24 8:40pm 276 6 G 9 54° 87% - - 50° 67.1° 39.8° - - -
4/24 8:30pm 277 6 G 10 54° 85% - - 50° 67.1° 39.8° - - -
4/24 8:20pm 282 7 G 10 54° 84% - - 50° 67.1° 39.8° - - -
4/24 8:10pm 281 7 G 10 55° 84% - - 50° 67.1° 39.8° - - -
4/24 8:00pm 284 7 G 10 55° 83% - - 50° 67.1° 39.8° - - -
4/24 7:50pm 283 6 G 8 55° 81% - - 49° 67.1° 39.8° - - -
4/24 7:40pm 286 5 G 7 55° 80% - - 49° 67.1° 39.8° - - -
4/24 7:30pm 283 6 G 9 56° 77% - - 49° 67.1° 39.8° - - -
4/24 7:20pm 291 6 G 9 57° 75% - - 49° 67.1° 39.8° - - -
4/24 7:10pm 309 6 G 9 57° 75% - - 49° 67.1° 39.8° - - -
4/24 7:00pm 320 5 G 10 58° 75% - - 50° 67.1° 39.8° - - -
4/24 6:50pm 318 7 G 11 58° 74% - - 50° 67.1° 39.8° - - -
4/24 6:40pm 315 8 G 14 59° 73% - - 50° 67.1° 39.8° - - -
4/24 6:30pm 304 9 G 14 59° 71% - - 50° 67.1° 39.8° - - -
4/24 6:20pm 317 10 G 15 60° 69% - - 50° 67.1° 39.8° - - -
4/24 6:10pm 322 9 G 15 61° 67% - - 50° 67.1° 39.8° - - -
4/24 6:00pm 324 10 G 14 61° 66% - - 50° 67.1° 39.8° - - -